Ramallah, West Bank
Current Conditions -  °F | °C
As of 9:50 PM on Friday 21 Nov 2014 (Local Time) from LLBG Reporting Station
Scattered Clouds Scattered Clouds  
Wind Chill: 63°   Ceiling: Unl
Heat Index: 63°   Visibility: 6mi
Dew Point: 59°   Wind: 3mph
Humidity: 88%   Direction: NA
Pressure: 29.94"   Gusts: NA
Location:  31.9°N, 35.2°E
Report Text: LLBG 211850Z VRB03KT 9999 SCT040 17/15 Q1014 NOSIG RMK BKN080
Loading
Personal Weather Stations






























Interactive Weather Map New forecast layout! Learn more

10-Day Weather Forecast

Advertisements
Track Severe Weather on mobile